sensor_id;sensor_type;location;lat;lon;timestamp;temperature;humidity
23550;DHT22;11953;49.010;8.608;2022-08-01T00:00:01;24.60;78.50
23550;DHT22;11953;49.010;8.608;2022-08-01T00:02:49;24.60;78.90
23550;DHT22;11953;49.010;8.608;2022-08-01T00:05:36;24.60;79.50
23550;DHT22;11953;49.010;8.608;2022-08-01T00:08:23;24.60;79.70
23550;DHT22;11953;49.010;8.608;2022-08-01T00:11:11;24.60;80.10
23550;DHT22;11953;49.010;8.608;2022-08-01T00:13:59;24.50;80.90
23550;DHT22;11953;49.010;8.608;2022-08-01T00:16:46;24.50;81.50
23550;DHT22;11953;49.010;8.608;2022-08-01T00:19:32;24.40;82.30
23550;DHT22;11953;49.010;8.608;2022-08-01T00:22:19;24.40;82.80
23550;DHT22;11953;49.010;8.608;2022-08-01T00:25:07;24.40;83.30
23550;DHT22;11953;49.010;8.608;2022-08-01T00:27:55;24.40;83.90
23550;DHT22;11953;49.010;8.608;2022-08-01T00:30:41;24.30;84.20
23550;DHT22;11953;49.010;8.608;2022-08-01T00:33:28;24.30;84.90
23550;DHT22;11953;49.010;8.608;2022-08-01T00:36:15;24.20;85.50
23550;DHT22;11953;49.010;8.608;2022-08-01T00:39:02;24.20;86.20
23550;DHT22;11953;49.010;8.608;2022-08-01T00:41:49;24.10;86.60
23550;DHT22;11953;49.010;8.608;2022-08-01T00:44:45;24.10;87.40
23550;DHT22;11953;49.010;8.608;2022-08-01T00:47:32;24.10;88.10
23550;DHT22;11953;49.010;8.608;2022-08-01T00:50:19;24.10;88.60
23550;DHT22;11953;49.010;8.608;2022-08-01T00:53:07;24.10;89.30
23550;DHT22;11953;49.010;8.608;2022-08-01T00:56:03;24.00;89.80
23550;DHT22;11953;49.010;8.608;2022-08-01T00:58:50;24.00;90.20
23550;DHT22;11953;49.010;8.608;2022-08-01T01:01:39;24.00;90.50
23550;DHT22;11953;49.010;8.608;2022-08-01T01:04:31;24.00;90.80
23550;DHT22;11953;49.010;8.608;2022-08-01T01:07:21;24.00;91.00
23550;DHT22;11953;49.010;8.608;2022-08-01T01:10:17;24.00;91.40
23550;DHT22;11953;49.010;8.608;2022-08-01T01:13:06;23.90;92.00
23550;DHT22;11953;49.010;8.608;2022-08-01T01:15:57;23.90;92.60
23550;DHT22;11953;49.010;8.608;2022-08-01T01:18:47;23.90;92.70
23550;DHT22;11953;49.010;8.608;2022-08-01T01:21:52;23.70;93.30
23550;DHT22;11953;49.010;8.608;2022-08-01T01:24:54;23.60;93.80
23550;DHT22;11953;49.010;8.608;2022-08-01T01:27:51;23.50;94.20
23550;DHT22;11953;49.010;8.608;2022-08-01T01:30:47;23.40;94.40
23550;DHT22;11953;49.010;8.608;2022-08-01T01:33:36;23.40;94.90
23550;DHT22;11953;49.010;8.608;2022-08-01T01:36:32;23.10;95.40
23550;DHT22;11953;49.010;8.608;2022-08-01T01:39:20;22.80;96.20
23550;DHT22;11953;49.010;8.608;2022-08-01T01:42:08;22.70;97.00
23550;DHT22;11953;49.010;8.608;2022-08-01T01:44:58;22.70;97.50
23550;DHT22;11953;49.010;8.608;2022-08-01T01:47:47;22.50;97.80
23550;DHT22;11953;49.010;8.608;2022-08-01T01:50:36;22.40;98.50
23550;DHT22;11953;49.010;8.608;2022-08-01T01:53:24;22.20;99.20
23550;DHT22;11953;49.010;8.608;2022-08-01T01:56:12;21.90;99.90
23550;DHT22;11953;49.010;8.608;2022-08-01T01:59:02;21.60;99.90
23550;DHT22;11953;49.010;8.608;2022-08-01T02:01:51;21.50;99.90
23550;DHT22;11953;49.010;8.608;2022-08-01T02:04:52;21.30;99.90
23550;DHT22;11953;49.010;8.608;2022-08-01T02:07:40;21.40;99.90
23550;DHT22;11953;49.010;8.608;2022-08-01T02:10:28;21.00;99.90
23550;DHT22;11953;49.010;8.608;2022-08-01T02:13:16;20.90;99.90
23550;DHT22;11953;49.010;8.608;2022-08-01T02:16:05;20.80;99.90
23550;DHT22;11953;49.010;8.608;2022-08-01T02:18:53;20.50;99.90
23550;DHT22;11953;49.010;8.608;2022-08-01T02:21:46;20.40;99.90
23550;DHT22;11953;49.010;8.608;2022-08-01T02:24:37;20.20;99.90
23550;DHT22;11953;49.010;8.608;2022-08-01T02:27:30;20.10;99.90
23550;DHT22;11953;49.010;8.608;2022-08-01T02:30:17;20.10;99.90
23550;DHT22;11953;49.010;8.608;2022-08-01T02:33:06;19.90;99.90
23550;DHT22;11953;49.010;8.608;2022-08-01T02:36:01;19.80;99.90
23550;DHT22;11953;49.010;8.608;2022-08-01T02:39:13;19.80;99.90
23550;DHT22;11953;49.010;8.608;2022-08-01T02:42:04;19.80;99.90
23550;DHT22;11953;49.010;8.608;2022-08-01T02:44:53;19.70;99.90
23550;DHT22;11953;49.010;8.608;2022-08-01T02:47:41;19.80;99.90
23550;DHT22;11953;49.010;8.608;2022-08-01T02:50:30;19.80;99.90
23550;DHT22;11953;49.010;8.608;2022-08-01T02:53:21;19.90;99.90
23550;DHT22;11953;49.010;8.608;2022-08-01T02:56:31;19.80;99.90
23550;DHT22;11953;49.010;8.608;2022-08-01T02:59:23;19.70;99.90
23550;DHT22;11953;49.010;8.608;2022-08-01T03:02:11;19.40;99.90
23550;DHT22;11953;49.010;8.608;2022-08-01T03:05:01;19.30;99.90
23550;DHT22;11953;49.010;8.608;2022-08-01T03:07:48;19.30;99.90
23550;DHT22;11953;49.010;8.608;2022-08-01T03:10:37;19.40;99.90
23550;DHT22;11953;49.010;8.608;2022-08-01T03:13:27;19.40;99.90
23550;DHT22;11953;49.010;8.608;2022-08-01T03:16:17;19.50;99.90
23550;DHT22;11953;49.010;8.608;2022-08-01T03:19:04;19.60;99.90
23550;DHT22;11953;49.010;8.608;2022-08-01T03:21:55;19.60;99.90
23550;DHT22;11953;49.010;8.608;2022-08-01T03:24:46;19.60;99.90
23550;DHT22;11953;49.010;8.608;2022-08-01T03:27:36;19.70;99.90
23550;DHT22;11953;49.010;8.608;2022-08-01T03:30:27;19.80;99.90
23550;DHT22;11953;49.010;8.608;2022-08-01T03:33:15;19.90;99.90
23550;DHT22;11953;49.010;8.608;2022-08-01T03:36:02;20.10;99.90
23550;DHT22;11953;49.010;8.608;2022-08-01T03:38:51;20.30;99.90
23550;DHT22;11953;49.010;8.608;2022-08-01T03:41:40;20.30;99.90
23550;DHT22;11953;49.010;8.608;2022-08-01T03:44:31;20.20;99.90
23550;DHT22;11953;49.010;8.608;2022-08-01T03:47:21;20.00;99.90
23550;DHT22;11953;49.010;8.608;2022-08-01T03:50:12;19.80;99.90
23550;DHT22;11953;49.010;8.608;2022-08-01T03:53:02;19.50;99.90
23550;DHT22;11953;49.010;8.608;2022-08-01T03:55:49;19.30;99.90
23550;DHT22;11953;49.010;8.608;2022-08-01T03:58:38;19.10;99.90
23550;DHT22;11953;49.010;8.608;2022-08-01T04:01:26;19.40;99.90
23550;DHT22;11953;49.010;8.608;2022-08-01T04:04:16;19.60;99.90
23550;DHT22;11953;49.010;8.608;2022-08-01T04:07:03;19.90;99.90
23550;DHT22;11953;49.010;8.608;2022-08-01T04:09:51;20.10;99.90
23550;DHT22;11953;49.010;8.608;2022-08-01T04:12:39;20.20;99.90
23550;DHT22;11953;49.010;8.608;2022-08-01T04:15:26;20.30;99.90
23550;DHT22;11953;49.010;8.608;2022-08-01T04:18:13;20.20;99.90
23550;DHT22;11953;49.010;8.608;2022-08-01T04:21:01;20.20;99.90
23550;DHT22;11953;49.010;8.608;2022-08-01T04:23:49;20.40;99.90
23550;DHT22;11953;49.010;8.608;2022-08-01T04:26:39;20.60;99.90
23550;DHT22;11953;49.010;8.608;2022-08-01T04:29:27;20.70;99.90
23550;DHT22;11953;49.010;8.608;2022-08-01T04:32:16;20.90;99.90
23550;DHT22;11953;49.010;8.608;2022-08-01T04:35:07;20.90;99.90
23550;DHT22;11953;49.010;8.608;2022-08-01T04:38:21;20.90;99.90
23550;DHT22;11953;49.010;8.608;2022-08-01T04:41:11;21.00;99.90
23550;DHT22;11953;49.010;8.608;2022-08-01T04:43:59;21.20;99.90
23550;DHT22;11953;49.010;8.608;2022-08-01T04:46:45;21.30;99.90
23550;DHT22;11953;49.010;8.608;2022-08-01T04:49:34;21.50;99.90
23550;DHT22;11953;49.010;8.608;2022-08-01T04:52:34;21.70;99.90
23550;DHT22;11953;49.010;8.608;2022-08-01T04:55:22;21.90;99.90
23550;DHT22;11953;49.010;8.608;2022-08-01T04:58:10;22.00;99.90
23550;DHT22;11953;49.010;8.608;2022-08-01T05:01:02;22.30;99.90
23550;DHT22;11953;49.010;8.608;2022-08-01T05:03:49;22.60;99.90
23550;DHT22;11953;49.010;8.608;2022-08-01T05:06:35;22.80;99.90
23550;DHT22;11953;49.010;8.608;2022-08-01T05:09:22;23.10;99.90
23550;DHT22;11953;49.010;8.608;2022-08-01T05:12:16;23.30;99.90
23550;DHT22;11953;49.010;8.608;2022-08-01T05:15:04;23.30;99.90
23550;DHT22;11953;49.010;8.608;2022-08-01T05:17:58;23.30;99.90
23550;DHT22;11953;49.010;8.608;2022-08-01T05:20:45;23.50;99.90
23550;DHT22;11953;49.010;8.608;2022-08-01T05:23:32;23.50;99.90
23550;DHT22;11953;49.010;8.608;2022-08-01T05:26:27;23.70;99.90
23550;DHT22;11953;49.010;8.608;2022-08-01T05:29:17;24.30;99.90
23550;DHT22;11953;49.010;8.608;2022-08-01T05:32:04;24.30;99.90
23550;DHT22;11953;49.010;8.608;2022-08-01T05:34:52;24.70;99.90
23550;DHT22;11953;49.010;8.608;2022-08-01T05:37:38;24.80;99.90
23550;DHT22;11953;49.010;8.608;2022-08-01T05:40:25;25.10;99.90
23550;DHT22;11953;49.010;8.608;2022-08-01T05:43:12;25.60;99.90
23550;DHT22;11953;49.010;8.608;2022-08-01T05:46:00;26.20;99.90
23550;DHT22;11953;49.010;8.608;2022-08-01T05:48:47;26.90;99.90
23550;DHT22;11953;49.010;8.608;2022-08-01T05:51:34;27.60;99.90
23550;DHT22;11953;49.010;8.608;2022-08-01T05:54:20;27.90;99.90
23550;DHT22;11953;49.010;8.608;2022-08-01T05:57:07;28.20;99.10
23550;DHT22;11953;49.010;8.608;2022-08-01T05:59:55;28.50;98.70
23550;DHT22;11953;49.010;8.608;2022-08-01T06:07:31;29.20;97.60
23550;DHT22;11953;49.010;8.608;2022-08-01T06:10:23;29.50;97.00
23550;DHT22;11953;49.010;8.608;2022-08-01T06:13:10;29.60;96.70
23550;DHT22;11953;49.010;8.608;2022-08-01T06:15:56;29.70;96.30
23550;DHT22;11953;49.010;8.608;2022-08-01T06:18:44;30.10;95.90
23550;DHT22;11953;49.010;8.608;2022-08-01T06:21:31;30.30;95.60
23550;DHT22;11953;49.010;8.608;2022-08-01T06:24:19;30.40;95.20
23550;DHT22;11953;49.010;8.608;2022-08-01T06:27:08;30.60;94.80
23550;DHT22;11953;49.010;8.608;2022-08-01T06:30:07;30.70;94.60
23550;DHT22;11953;49.010;8.608;2022-08-01T06:32:54;31.10;94.20
23550;DHT22;11953;49.010;8.608;2022-08-01T06:35:43;31.10;93.90
23550;DHT22;11953;49.010;8.608;2022-08-01T06:38:30;31.20;93.60
23550;DHT22;11953;49.010;8.608;2022-08-01T06:41:18;31.30;93.40
23550;DHT22;11953;49.010;8.608;2022-08-01T06:44:05;31.50;93.00
23550;DHT22;11953;49.010;8.608;2022-08-01T06:46:52;31.90;92.80
23550;DHT22;11953;49.010;8.608;2022-08-01T06:49:39;31.90;92.40
23550;DHT22;11953;49.010;8.608;2022-08-01T06:52:26;32.10;91.90
23550;DHT22;11953;49.010;8.608;2022-08-01T06:55:13;32.20;91.80
23550;DHT22;11953;49.010;8.608;2022-08-01T06:58:01;31.70;91.70
23550;DHT22;11953;49.010;8.608;2022-08-01T07:00:48;31.90;91.70
23550;DHT22;11953;49.010;8.608;2022-08-01T07:03:41;32.30;91.30
23550;DHT22;11953;49.010;8.608;2022-08-01T07:06:39;31.70;91.40
23550;DHT22;11953;49.010;8.608;2022-08-01T07:09:25;30.90;92.20
23550;DHT22;11953;49.010;8.608;2022-08-01T07:12:11;30.70;92.50
23550;DHT22;11953;49.010;8.608;2022-08-01T07:15:00;30.30;93.10
23550;DHT22;11953;49.010;8.608;2022-08-01T07:17:46;30.00;93.50
23550;DHT22;11953;49.010;8.608;2022-08-01T07:20:33;29.90;94.00
23550;DHT22;11953;49.010;8.608;2022-08-01T07:23:35;29.90;94.10
23550;DHT22;11953;49.010;8.608;2022-08-01T07:26:30;30.50;93.60
23550;DHT22;11953;49.010;8.608;2022-08-01T07:29:17;31.20;93.20
23550;DHT22;11953;49.010;8.608;2022-08-01T07:32:05;31.70;92.40
23550;DHT22;11953;49.010;8.608;2022-08-01T07:34:53;31.90;91.90
23550;DHT22;11953;49.010;8.608;2022-08-01T07:37:40;32.20;91.70
23550;DHT22;11953;49.010;8.608;2022-08-01T07:40:33;32.20;91.50
23550;DHT22;11953;49.010;8.608;2022-08-01T07:43:21;32.00;91.50
23550;DHT22;11953;49.010;8.608;2022-08-01T07:46:07;32.30;91.20
23550;DHT22;11953;49.010;8.608;2022-08-01T07:48:55;32.80;91.20
23550;DHT22;11953;49.010;8.608;2022-08-01T07:51:42;32.80;90.40
23550;DHT22;11953;49.010;8.608;2022-08-01T07:54:48;32.90;90.60
23550;DHT22;11953;49.010;8.608;2022-08-01T07:57:36;32.90;90.20
23550;DHT22;11953;49.010;8.608;2022-08-01T08:00:23;32.90;90.00
23550;DHT22;11953;49.010;8.608;2022-08-01T08:03:10;33.00;90.00
23550;DHT22;11953;49.010;8.608;2022-08-01T08:05:58;32.80;90.10
23550;DHT22;11953;49.010;8.608;2022-08-01T08:08:45;32.80;90.20
23550;DHT22;11953;49.010;8.608;2022-08-01T08:11:32;33.10;90.00
23550;DHT22;11953;49.010;8.608;2022-08-01T08:14:19;32.80;89.70
23550;DHT22;11953;49.010;8.608;2022-08-01T08:17:17;33.20;89.80
23550;DHT22;11953;49.010;8.608;2022-08-01T08:20:05;33.30;88.90
23550;DHT22;11953;49.010;8.608;2022-08-01T08:22:55;33.50;87.90
23550;DHT22;11953;49.010;8.608;2022-08-01T08:25:43;33.70;88.00
23550;DHT22;11953;49.010;8.608;2022-08-01T08:28:30;33.40;87.40
23550;DHT22;11953;49.010;8.608;2022-08-01T08:31:16;33.30;87.70
23550;DHT22;11953;49.010;8.608;2022-08-01T08:34:23;33.70;87.80
23550;DHT22;11953;49.010;8.608;2022-08-01T08:37:10;33.40;87.00
23550;DHT22;11953;49.010;8.608;2022-08-01T08:39:59;33.70;87.20
23550;DHT22;11953;49.010;8.608;2022-08-01T08:42:47;34.10;86.20
23550;DHT22;11953;49.010;8.608;2022-08-01T08:45:34;34.20;85.20
23550;DHT22;11953;49.010;8.608;2022-08-01T08:48:41;34.30;84.90
23550;DHT22;11953;49.010;8.608;2022-08-01T08:51:30;34.60;83.90
23550;DHT22;11953;49.010;8.608;2022-08-01T08:54:20;34.20;84.10
23550;DHT22;11953;49.010;8.608;2022-08-01T08:57:19;34.00;84.10
23550;DHT22;11953;49.010;8.608;2022-08-01T09:00:07;34.20;83.50
23550;DHT22;11953;49.010;8.608;2022-08-01T09:02:57;34.50;82.40
23550;DHT22;11953;49.010;8.608;2022-08-01T09:05:44;34.40;82.80
23550;DHT22;11953;49.010;8.608;2022-08-01T09:08:32;34.60;82.30
23550;DHT22;11953;49.010;8.608;2022-08-01T09:11:19;34.60;81.10
23550;DHT22;11953;49.010;8.608;2022-08-01T09:14:11;34.60;80.30
23550;DHT22;11953;49.010;8.608;2022-08-01T09:17:02;34.60;80.40
23550;DHT22;11953;49.010;8.608;2022-08-01T09:19:53;34.90;80.70
23550;DHT22;11953;49.010;8.608;2022-08-01T09:22:43;35.20;80.10
23550;DHT22;11953;49.010;8.608;2022-08-01T09:25:50;35.40;79.60
23550;DHT22;11953;49.010;8.608;2022-08-01T09:28:37;34.70;80.10
23550;DHT22;11953;49.010;8.608;2022-08-01T09:31:38;35.10;79.90
23550;DHT22;11953;49.010;8.608;2022-08-01T09:34:27;35.60;77.30
23550;DHT22;11953;49.010;8.608;2022-08-01T09:37:13;35.70;77.60
23550;DHT22;11953;49.010;8.608;2022-08-01T09:40:09;35.80;77.20
23550;DHT22;11953;49.010;8.608;2022-08-01T09:43:10;35.60;77.00
23550;DHT22;11953;49.010;8.608;2022-08-01T09:46:04;35.00;77.10
23550;DHT22;11953;49.010;8.608;2022-08-01T09:49:00;35.20;76.30
23550;DHT22;11953;49.010;8.608;2022-08-01T09:51:52;35.40;76.40
23550;DHT22;11953;49.010;8.608;2022-08-01T09:54:54;35.40;75.90
23550;DHT22;11953;49.010;8.608;2022-08-01T09:57:54;35.40;74.60
23550;DHT22;11953;49.010;8.608;2022-08-01T10:00:41;35.40;76.20
23550;DHT22;11953;49.010;8.608;2022-08-01T10:03:30;35.60;75.40
23550;DHT22;11953;49.010;8.608;2022-08-01T10:06:21;36.00;74.70
23550;DHT22;11953;49.010;8.608;2022-08-01T10:09:09;35.60;74.30
23550;DHT22;11953;49.010;8.608;2022-08-01T10:11:59;35.30;75.30
23550;DHT22;11953;49.010;8.608;2022-08-01T10:14:47;35.20;74.90
23550;DHT22;11953;49.010;8.608;2022-08-01T10:17:38;35.30;75.20
23550;DHT22;11953;49.010;8.608;2022-08-01T10:20:36;34.50;75.10
23550;DHT22;11953;49.010;8.608;2022-08-01T10:23:25;33.90;76.50
23550;DHT22;11953;49.010;8.608;2022-08-01T10:26:26;34.10;76.10
23550;DHT22;11953;49.010;8.608;2022-08-01T10:29:15;34.40;76.80
23550;DHT22;11953;49.010;8.608;2022-08-01T10:32:24;34.50;76.20
23550;DHT22;11953;49.010;8.608;2022-08-01T10:35:13;34.30;77.10
23550;DHT22;11953;49.010;8.608;2022-08-01T10:38:24;33.60;77.80
23550;DHT22;11953;49.010;8.608;2022-08-01T10:41:13;32.60;79.00
23550;DHT22;11953;49.010;8.608;2022-08-01T10:44:01;32.00;80.20
23550;DHT22;11953;49.010;8.608;2022-08-01T10:46:51;31.60;81.20
23550;DHT22;11953;49.010;8.608;2022-08-01T10:49:43;31.60;81.70
23550;DHT22;11953;49.010;8.608;2022-08-01T10:52:32;31.50;81.70
23550;DHT22;11953;49.010;8.608;2022-08-01T10:55:25;32.20;82.00
23550;DHT22;11953;49.010;8.608;2022-08-01T10:58:12;33.10;80.80
23550;DHT22;11953;49.010;8.608;2022-08-01T11:01:14;33.00;80.10
23550;DHT22;11953;49.010;8.608;2022-08-01T11:04:06;32.50;79.50
23550;DHT22;11953;49.010;8.608;2022-08-01T11:07:04;32.30;79.90
23550;DHT22;11953;49.010;8.608;2022-08-01T11:10:03;32.40;81.80
23550;DHT22;11953;49.010;8.608;2022-08-01T11:13:00;32.00;82.20
23550;DHT22;11953;49.010;8.608;2022-08-01T11:15:48;31.80;83.80
23550;DHT22;11953;49.010;8.608;2022-08-01T11:18:35;31.50;83.60
23550;DHT22;11953;49.010;8.608;2022-08-01T11:21:57;31.20;83.40
23550;DHT22;11953;49.010;8.608;2022-08-01T11:24:57;31.50;83.70
23550;DHT22;11953;49.010;8.608;2022-08-01T11:27:45;31.80;83.20
23550;DHT22;11953;49.010;8.608;2022-08-01T11:34:52;32.60;82.00
23550;DHT22;11953;49.010;8.608;2022-08-01T11:37:39;33.00;79.50
23550;DHT22;11953;49.010;8.608;2022-08-01T11:40:30;33.10;80.20
23550;DHT22;11953;49.010;8.608;2022-08-01T11:43:18;32.90;79.10
23550;DHT22;11953;49.010;8.608;2022-08-01T11:46:04;32.50;80.20
23550;DHT22;11953;49.010;8.608;2022-08-01T11:49:29;32.20;80.60
23550;DHT22;11953;49.010;8.608;2022-08-01T11:52:24;32.00;82.00
23550;DHT22;11953;49.010;8.608;2022-08-01T11:55:11;31.90;81.60
23550;DHT22;11953;49.010;8.608;2022-08-01T11:58:03;32.60;80.80
23550;DHT22;11953;49.010;8.608;2022-08-01T12:00:54;33.20;80.50
23550;DHT22;11953;49.010;8.608;2022-08-01T12:03:55;33.40;79.10
23550;DHT22;11953;49.010;8.608;2022-08-01T12:06:42;32.90;80.30
23550;DHT22;11953;49.010;8.608;2022-08-01T12:09:35;32.30;80.70
23550;DHT22;11953;49.010;8.608;2022-08-01T12:12:22;32.20;80.80
23550;DHT22;11953;49.010;8.608;2022-08-01T12:15:32;32.60;81.20
23550;DHT22;11953;49.010;8.608;2022-08-01T12:18:20;32.70;80.30
23550;DHT22;11953;49.010;8.608;2022-08-01T12:21:06;32.90;79.50
23550;DHT22;11953;49.010;8.608;2022-08-01T12:24:00;32.50;80.70
23550;DHT22;11953;49.010;8.608;2022-08-01T12:26:47;32.40;80.20
23550;DHT22;11953;49.010;8.608;2022-08-01T12:29:35;32.70;80.70
23550;DHT22;11953;49.010;8.608;2022-08-01T12:32:26;32.90;79.10
23550;DHT22;11953;49.010;8.608;2022-08-01T12:35:21;32.80;79.80
23550;DHT22;11953;49.010;8.608;2022-08-01T12:38:15;32.60;79.70
23550;DHT22;11953;49.010;8.608;2022-08-01T12:41:02;32.60;80.70
23550;DHT22;11953;49.010;8.608;2022-08-01T12:43:49;32.60;78.60
23550;DHT22;11953;49.010;8.608;2022-08-01T12:46:35;32.40;79.10
23550;DHT22;11953;49.010;8.608;2022-08-01T12:49:30;32.40;77.90
23550;DHT22;11953;49.010;8.608;2022-08-01T12:52:18;32.60;78.10
23550;DHT22;11953;49.010;8.608;2022-08-01T12:55:12;32.60;78.70
23550;DHT22;11953;49.010;8.608;2022-08-01T12:58:04;32.20;78.80
23550;DHT22;11953;49.010;8.608;2022-08-01T13:01:03;32.00;79.10
23550;DHT22;11953;49.010;8.608;2022-08-01T13:04:00;32.00;81.30
23550;DHT22;11953;49.010;8.608;2022-08-01T13:06:53;31.80;79.70
23550;DHT22;11953;49.010;8.608;2022-08-01T13:09:49;31.80;81.30
23550;DHT22;11953;49.010;8.608;2022-08-01T13:12:36;31.90;80.50
23550;DHT22;11953;49.010;8.608;2022-08-01T13:15:26;31.90;80.30
23550;DHT22;11953;49.010;8.608;2022-08-01T13:18:24;31.80;81.00
23550;DHT22;11953;49.010;8.608;2022-08-01T13:21:12;31.80;80.40
23550;DHT22;11953;49.010;8.608;2022-08-01T13:24:03;31.70;78.20
23550;DHT22;11953;49.010;8.608;2022-08-01T13:26:54;31.60;80.00
23550;DHT22;11953;49.010;8.608;2022-08-01T13:29:44;31.40;80.30
23550;DHT22;11953;49.010;8.608;2022-08-01T13:32:32;31.60;79.90
23550;DHT22;11953;49.010;8.608;2022-08-01T13:35:20;31.60;78.40
23550;DHT22;11953;49.010;8.608;2022-08-01T13:38:07;31.40;78.50
23550;DHT22;11953;49.010;8.608;2022-08-01T13:40:59;31.40;80.00
23550;DHT22;11953;49.010;8.608;2022-08-01T13:43:45;31.40;81.00
23550;DHT22;11953;49.010;8.608;2022-08-01T13:46:45;31.30;80.20
23550;DHT22;11953;49.010;8.608;2022-08-01T13:49:36;31.20;80.70
23550;DHT22;11953;49.010;8.608;2022-08-01T13:52:25;31.20;79.90
23550;DHT22;11953;49.010;8.608;2022-08-01T13:55:12;31.30;79.20
23550;DHT22;11953;49.010;8.608;2022-08-01T13:58:00;31.20;79.40
23550;DHT22;11953;49.010;8.608;2022-08-01T14:00:48;31.20;80.60
23550;DHT22;11953;49.010;8.608;2022-08-01T14:03:34;31.20;79.90
23550;DHT22;11953;49.010;8.608;2022-08-01T14:06:21;31.40;80.40
23550;DHT22;11953;49.010;8.608;2022-08-01T14:09:08;31.50;79.60
23550;DHT22;11953;49.010;8.608;2022-08-01T14:12:08;31.50;79.30
23550;DHT22;11953;49.010;8.608;2022-08-01T14:14:56;31.60;78.20
23550;DHT22;11953;49.010;8.608;2022-08-01T14:17:43;31.60;77.90
23550;DHT22;11953;49.010;8.608;2022-08-01T14:20:32;31.40;77.90
23550;DHT22;11953;49.010;8.608;2022-08-01T14:23:19;31.10;78.00
23550;DHT22;11953;49.010;8.608;2022-08-01T14:26:07;31.00;78.60
23550;DHT22;11953;49.010;8.608;2022-08-01T14:28:57;31.00;78.30
23550;DHT22;11953;49.010;8.608;2022-08-01T14:31:45;30.90;79.60
23550;DHT22;11953;49.010;8.608;2022-08-01T14:34:31;31.10;78.40
23550;DHT22;11953;49.010;8.608;2022-08-01T14:37:19;31.00;78.80
23550;DHT22;11953;49.010;8.608;2022-08-01T14:40:12;31.20;79.40
23550;DHT22;11953;49.010;8.608;2022-08-01T14:43:04;31.20;78.90
23550;DHT22;11953;49.010;8.608;2022-08-01T14:46:09;31.00;78.50
23550;DHT22;11953;49.010;8.608;2022-08-01T14:48:59;30.90;78.50
23550;DHT22;11953;49.010;8.608;2022-08-01T14:51:45;30.90;79.00
23550;DHT22;11953;49.010;8.608;2022-08-01T14:54:32;30.70;78.90
23550;DHT22;11953;49.010;8.608;2022-08-01T14:57:19;30.70;78.70
23550;DHT22;11953;49.010;8.608;2022-08-01T15:00:08;30.60;79.10
23550;DHT22;11953;49.010;8.608;2022-08-01T15:02:56;30.60;79.40
23550;DHT22;11953;49.010;8.608;2022-08-01T15:05:45;30.50;81.10
23550;DHT22;11953;49.010;8.608;2022-08-01T15:08:32;30.50;80.30
23550;DHT22;11953;49.010;8.608;2022-08-01T15:11:19;30.40;79.80
23550;DHT22;11953;49.010;8.608;2022-08-01T15:14:06;30.30;80.50
23550;DHT22;11953;49.010;8.608;2022-08-01T15:17:10;30.20;80.80
23550;DHT22;11953;49.010;8.608;2022-08-01T15:19:58;30.20;80.30
23550;DHT22;11953;49.010;8.608;2022-08-01T15:22:46;30.00;80.70
23550;DHT22;11953;49.010;8.608;2022-08-01T15:25:34;29.90;80.20
23550;DHT22;11953;49.010;8.608;2022-08-01T15:28:26;30.00;81.60
23550;DHT22;11953;49.010;8.608;2022-08-01T15:31:13;30.00;81.50
23550;DHT22;11953;49.010;8.608;2022-08-01T15:34:00;30.00;81.40
23550;DHT22;11953;49.010;8.608;2022-08-01T15:36:48;30.00;82.50
23550;DHT22;11953;49.010;8.608;2022-08-01T15:39:37;29.90;81.90
23550;DHT22;11953;49.010;8.608;2022-08-01T15:42:24;29.90;82.10
23550;DHT22;11953;49.010;8.608;2022-08-01T15:45:11;29.90;81.90
23550;DHT22;11953;49.010;8.608;2022-08-01T15:48:23;29.80;82.70
23550;DHT22;11953;49.010;8.608;2022-08-01T15:51:10;29.90;83.30
23550;DHT22;11953;49.010;8.608;2022-08-01T15:53:56;29.90;82.70
23550;DHT22;11953;49.010;8.608;2022-08-01T15:56:45;29.70;82.70
23550;DHT22;11953;49.010;8.608;2022-08-01T15:59:32;29.60;83.30
23550;DHT22;11953;49.010;8.608;2022-08-01T16:02:24;29.70;83.50
23550;DHT22;11953;49.010;8.608;2022-08-01T16:05:11;29.70;84.40
23550;DHT22;11953;49.010;8.608;2022-08-01T16:08:05;29.70;83.80
23550;DHT22;11953;49.010;8.608;2022-08-01T16:10:52;29.60;83.90
23550;DHT22;11953;49.010;8.608;2022-08-01T16:13:40;29.50;84.20
23550;DHT22;11953;49.010;8.608;2022-08-01T16:16:28;29.40;84.50
23550;DHT22;11953;49.010;8.608;2022-08-01T16:19:15;29.40;84.00
23550;DHT22;11953;49.010;8.608;2022-08-01T16:22:04;29.30;84.30
23550;DHT22;11953;49.010;8.608;2022-08-01T16:24:50;29.20;84.30
23550;DHT22;11953;49.010;8.608;2022-08-01T16:27:43;29.20;84.90
23550;DHT22;11953;49.010;8.608;2022-08-01T16:30:32;29.00;84.70
23550;DHT22;11953;49.010;8.608;2022-08-01T16:33:19;29.00;85.60
23550;DHT22;11953;49.010;8.608;2022-08-01T16:36:26;28.90;85.40
23550;DHT22;11953;49.010;8.608;2022-08-01T16:39:12;28.90;85.90
23550;DHT22;11953;49.010;8.608;2022-08-01T16:42:05;28.70;85.90
23550;DHT22;11953;49.010;8.608;2022-08-01T16:44:53;28.60;86.10
23550;DHT22;11953;49.010;8.608;2022-08-01T16:47:41;28.50;86.50
23550;DHT22;11953;49.010;8.608;2022-08-01T16:50:27;28.60;86.70
23550;DHT22;11953;49.010;8.608;2022-08-01T16:53:16;28.60;86.80
23550;DHT22;11953;49.010;8.608;2022-08-01T16:56:03;28.70;86.60
23550;DHT22;11953;49.010;8.608;2022-08-01T16:58:50;28.70;86.50
23550;DHT22;11953;49.010;8.608;2022-08-01T17:01:37;28.70;86.70
23550;DHT22;11953;49.010;8.608;2022-08-01T17:04:45;28.70;86.80
23550;DHT22;11953;49.010;8.608;2022-08-01T17:07:32;28.70;87.60
23550;DHT22;11953;49.010;8.608;2022-08-01T17:10:19;28.70;88.00
23550;DHT22;11953;49.010;8.608;2022-08-01T17:13:05;28.50;87.10
23550;DHT22;11953;49.010;8.608;2022-08-01T17:15:54;28.50;87.20
23550;DHT22;11953;49.010;8.608;2022-08-01T17:18:41;28.60;87.60
23550;DHT22;11953;49.010;8.608;2022-08-01T17:21:29;28.50;87.80
23550;DHT22;11953;49.010;8.608;2022-08-01T17:24:15;28.50;87.50
23550;DHT22;11953;49.010;8.608;2022-08-01T17:27:03;28.40;87.40
23550;DHT22;11953;49.010;8.608;2022-08-01T17:29:57;28.30;87.20
23550;DHT22;11953;49.010;8.608;2022-08-01T17:32:43;28.30;87.20
23550;DHT22;11953;49.010;8.608;2022-08-01T17:35:31;28.20;87.10
23550;DHT22;11953;49.010;8.608;2022-08-01T17:38:20;28.20;87.60
23550;DHT22;11953;49.010;8.608;2022-08-01T17:41:06;28.10;87.60
23550;DHT22;11953;49.010;8.608;2022-08-01T17:43:53;28.10;87.20
23550;DHT22;11953;49.010;8.608;2022-08-01T17:46:40;28.00;87.40
23550;DHT22;11953;49.010;8.608;2022-08-01T17:49:27;28.00;87.40
23550;DHT22;11953;49.010;8.608;2022-08-01T17:52:35;28.00;87.50
23550;DHT22;11953;49.010;8.608;2022-08-01T17:55:23;28.00;87.70
23550;DHT22;11953;49.010;8.608;2022-08-01T17:58:30;28.00;87.70
23550;DHT22;11953;49.010;8.608;2022-08-01T18:01:36;27.90;87.70
23550;DHT22;11953;49.010;8.608;2022-08-01T18:04:29;27.90;87.90